sensor_id;sensor_type;location;lat;lon;timestamp;temperature;humidity
44463;DHT22;30170;52.190;8.702;2022-09-09T00:00:46;23.80;70.00
44463;DHT22;30170;52.190;8.702;2022-09-09T00:03:19;23.70;69.40
44463;DHT22;30170;52.190;8.702;2022-09-09T00:08:40;23.70;69.60
44463;DHT22;30170;52.190;8.702;2022-09-09T00:11:12;23.70;69.50
44463;DHT22;30170;52.190;8.702;2022-09-09T00:13:54;23.70;69.60
44463;DHT22;30170;52.190;8.702;2022-09-09T00:16:28;23.70;69.70
44463;DHT22;30170;52.190;8.702;2022-09-09T00:19:08;23.70;69.60
44463;DHT22;30170;52.190;8.702;2022-09-09T00:21:53;23.70;69.70
44463;DHT22;30170;52.190;8.702;2022-09-09T00:24:32;23.70;69.70
44463;DHT22;30170;52.190;8.702;2022-09-09T00:27:25;23.70;69.70
44463;DHT22;30170;52.190;8.702;2022-09-09T00:30:13;23.70;69.80
44463;DHT22;30170;52.190;8.702;2022-09-09T00:32:40;23.70;69.70
44463;DHT22;30170;52.190;8.702;2022-09-09T00:35:16;23.70;69.60
44463;DHT22;30170;52.190;8.702;2022-09-09T00:37:46;23.70;69.70
44463;DHT22;30170;52.190;8.702;2022-09-09T00:40:31;23.70;69.70
44463;DHT22;30170;52.190;8.702;2022-09-09T00:57:15;23.80;69.80
44463;DHT22;30170;52.190;8.702;2022-09-09T00:59:51;23.80;69.50
44463;DHT22;30170;52.190;8.702;2022-09-09T01:02:39;23.80;69.90
44463;DHT22;30170;52.190;8.702;2022-09-09T01:08:05;23.80;69.50
44463;DHT22;30170;52.190;8.702;2022-09-09T01:10:49;23.80;69.60
44463;DHT22;30170;52.190;8.702;2022-09-09T01:13:26;23.70;69.60
44463;DHT22;30170;52.190;8.702;2022-09-09T01:15:54;23.70;69.60
44463;DHT22;30170;52.190;8.702;2022-09-09T01:18:32;23.70;69.50
44463;DHT22;30170;52.190;8.702;2022-09-09T01:21:05;23.70;69.40
44463;DHT22;30170;52.190;8.702;2022-09-09T01:23:47;23.70;69.60
44463;DHT22;30170;52.190;8.702;2022-09-09T01:26:30;23.70;69.60
44463;DHT22;30170;52.190;8.702;2022-09-09T01:28:58;23.70;69.60
44463;DHT22;30170;52.190;8.702;2022-09-09T01:31:56;23.70;69.60
44463;DHT22;30170;52.190;8.702;2022-09-09T01:34:27;23.70;69.60
44463;DHT22;30170;52.190;8.702;2022-09-09T01:39:25;23.80;69.60
44463;DHT22;30170;52.190;8.702;2022-09-09T01:41:53;23.80;69.60
44463;DHT22;30170;52.190;8.702;2022-09-09T01:44:21;23.80;69.60
44463;DHT22;30170;52.190;8.702;2022-09-09T01:46:48;23.70;69.30
44463;DHT22;30170;52.190;8.702;2022-09-09T01:49:16;23.70;69.30
44463;DHT22;30170;52.190;8.702;2022-09-09T01:51:48;23.70;69.20
44463;DHT22;30170;52.190;8.702;2022-09-09T01:54:16;23.70;69.40
44463;DHT22;30170;52.190;8.702;2022-09-09T01:59:42;23.70;69.10
44463;DHT22;30170;52.190;8.702;2022-09-09T02:04:54;23.70;69.20
44463;DHT22;30170;52.190;8.702;2022-09-09T02:07:50;23.70;69.10
44463;DHT22;30170;52.190;8.702;2022-09-09T02:10:31;23.70;69.20
44463;DHT22;30170;52.190;8.702;2022-09-09T02:13:05;23.70;69.10
44463;DHT22;30170;52.190;8.702;2022-09-09T02:18:11;23.70;69.20
44463;DHT22;30170;52.190;8.702;2022-09-09T02:20:41;23.70;69.20
44463;DHT22;30170;52.190;8.702;2022-09-09T02:23:11;23.70;69.20
44463;DHT22;30170;52.190;8.702;2022-09-09T02:25:40;23.70;69.20
44463;DHT22;30170;52.190;8.702;2022-09-09T02:28:09;23.70;69.20
44463;DHT22;30170;52.190;8.702;2022-09-09T02:30:38;23.70;69.20
44463;DHT22;30170;52.190;8.702;2022-09-09T02:33:07;23.70;69.20
44463;DHT22;30170;52.190;8.702;2022-09-09T02:35:37;23.70;69.20
44463;DHT22;30170;52.190;8.702;2022-09-09T02:38:08;23.70;69.20
44463;DHT22;30170;52.190;8.702;2022-09-09T02:40:35;23.70;69.20
44463;DHT22;30170;52.190;8.702;2022-09-09T02:43:02;23.70;69.20
44463;DHT22;30170;52.190;8.702;2022-09-09T02:45:46;23.70;69.20
44463;DHT22;30170;52.190;8.702;2022-09-09T02:48:30;23.70;69.20
44463;DHT22;30170;52.190;8.702;2022-09-09T02:54:29;23.70;69.20
44463;DHT22;30170;52.190;8.702;2022-09-09T02:57:19;23.70;69.20
44463;DHT22;30170;52.190;8.702;2022-09-09T02:59:47;23.80;69.20
44463;DHT22;30170;52.190;8.702;2022-09-09T03:02:14;23.70;69.20
44463;DHT22;30170;52.190;8.702;2022-09-09T03:04:41;23.70;69.20
44463;DHT22;30170;52.190;8.702;2022-09-09T03:07:11;23.70;69.10
44463;DHT22;30170;52.190;8.702;2022-09-09T03:09:38;23.70;69.20
44463;DHT22;30170;52.190;8.702;2022-09-09T03:12:05;23.70;69.00
44463;DHT22;30170;52.190;8.702;2022-09-09T03:14:33;23.70;69.00
44463;DHT22;30170;52.190;8.702;2022-09-09T03:17:00;23.70;69.10
44463;DHT22;30170;52.190;8.702;2022-09-09T03:19:28;23.70;69.00
44463;DHT22;30170;52.190;8.702;2022-09-09T03:21:56;23.70;69.00
44463;DHT22;30170;52.190;8.702;2022-09-09T03:24:24;23.70;69.10
44463;DHT22;30170;52.190;8.702;2022-09-09T03:26:51;23.70;69.00
44463;DHT22;30170;52.190;8.702;2022-09-09T03:29:18;23.70;69.10
44463;DHT22;30170;52.190;8.702;2022-09-09T03:31:45;23.70;69.00
44463;DHT22;30170;52.190;8.702;2022-09-09T03:34:12;23.70;69.00
44463;DHT22;30170;52.190;8.702;2022-09-09T03:36:40;23.70;69.00
44463;DHT22;30170;52.190;8.702;2022-09-09T03:39:07;23.70;69.00
44463;DHT22;30170;52.190;8.702;2022-09-09T03:41:34;23.70;69.00
44463;DHT22;30170;52.190;8.702;2022-09-09T03:44:01;23.70;69.00
44463;DHT22;30170;52.190;8.702;2022-09-09T03:46:27;23.70;69.00
44463;DHT22;30170;52.190;8.702;2022-09-09T03:48:54;23.70;68.90
44463;DHT22;30170;52.190;8.702;2022-09-09T03:51:22;23.70;68.90
44463;DHT22;30170;52.190;8.702;2022-09-09T03:53:48;23.70;68.90
44463;DHT22;30170;52.190;8.702;2022-09-09T03:56:15;23.70;68.90
44463;DHT22;30170;52.190;8.702;2022-09-09T03:58:42;23.70;68.90
44463;DHT22;30170;52.190;8.702;2022-09-09T04:01:12;23.70;68.90
44463;DHT22;30170;52.190;8.702;2022-09-09T04:03:44;23.70;68.90
44463;DHT22;30170;52.190;8.702;2022-09-09T04:06:12;23.70;68.80
44463;DHT22;30170;52.190;8.702;2022-09-09T04:08:41;23.70;68.80
44463;DHT22;30170;52.190;8.702;2022-09-09T04:11:08;23.70;68.80
44463;DHT22;30170;52.190;8.702;2022-09-09T04:13:37;23.70;68.70
44463;DHT22;30170;52.190;8.702;2022-09-09T04:16:06;23.70;68.70
44463;DHT22;30170;52.190;8.702;2022-09-09T04:18:33;23.70;68.80
44463;DHT22;30170;52.190;8.702;2022-09-09T04:21:01;23.70;68.70
44463;DHT22;30170;52.190;8.702;2022-09-09T04:23:29;23.70;68.70
44463;DHT22;30170;52.190;8.702;2022-09-09T04:25:57;23.70;68.70
44463;DHT22;30170;52.190;8.702;2022-09-09T04:28:26;23.70;68.60
44463;DHT22;30170;52.190;8.702;2022-09-09T04:30:54;23.70;68.70
44463;DHT22;30170;52.190;8.702;2022-09-09T04:33:23;23.70;68.70
44463;DHT22;30170;52.190;8.702;2022-09-09T04:35:52;23.70;68.70
44463;DHT22;30170;52.190;8.702;2022-09-09T04:38:20;23.70;69.20
44463;DHT22;30170;52.190;8.702;2022-09-09T04:40:50;23.70;68.70
44463;DHT22;30170;52.190;8.702;2022-09-09T04:43:18;23.70;68.60
44463;DHT22;30170;52.190;8.702;2022-09-09T04:45:50;23.70;68.50
44463;DHT22;30170;52.190;8.702;2022-09-09T04:48:18;23.70;68.30
44463;DHT22;30170;52.190;8.702;2022-09-09T04:50:54;23.70;68.50
44463;DHT22;30170;52.190;8.702;2022-09-09T04:53:21;23.70;68.60
44463;DHT22;30170;52.190;8.702;2022-09-09T04:55:48;23.70;68.60
44463;DHT22;30170;52.190;8.702;2022-09-09T04:58:15;23.70;68.40
44463;DHT22;30170;52.190;8.702;2022-09-09T05:00:42;23.70;68.50
44463;DHT22;30170;52.190;8.702;2022-09-09T05:03:09;23.70;68.40
44463;DHT22;30170;52.190;8.702;2022-09-09T05:05:36;23.60;68.30
44463;DHT22;30170;52.190;8.702;2022-09-09T05:08:06;23.60;68.20
44463;DHT22;30170;52.190;8.702;2022-09-09T05:10:37;23.60;68.20
44463;DHT22;30170;52.190;8.702;2022-09-09T05:13:04;23.60;68.40
44463;DHT22;30170;52.190;8.702;2022-09-09T05:15:31;23.50;68.30
44463;DHT22;30170;52.190;8.702;2022-09-09T05:17:59;23.50;68.40
44463;DHT22;30170;52.190;8.702;2022-09-09T05:20:27;23.50;68.50
44463;DHT22;30170;52.190;8.702;2022-09-09T05:22:55;23.50;68.80
44463;DHT22;30170;52.190;8.702;2022-09-09T05:25:23;23.60;68.50
44463;DHT22;30170;52.190;8.702;2022-09-09T05:27:52;23.50;68.30
44463;DHT22;30170;52.190;8.702;2022-09-09T05:30:20;23.50;68.20
44463;DHT22;30170;52.190;8.702;2022-09-09T05:32:48;23.40;68.30
44463;DHT22;30170;52.190;8.702;2022-09-09T05:35:15;23.40;68.40
44463;DHT22;30170;52.190;8.702;2022-09-09T05:37:42;23.40;68.50
44463;DHT22;30170;52.190;8.702;2022-09-09T05:40:09;23.30;68.30
44463;DHT22;30170;52.190;8.702;2022-09-09T05:42:37;23.30;68.40
44463;DHT22;30170;52.190;8.702;2022-09-09T05:45:06;23.20;68.50
44463;DHT22;30170;52.190;8.702;2022-09-09T05:47:35;23.20;68.50
44463;DHT22;30170;52.190;8.702;2022-09-09T05:50:02;23.10;68.60
44463;DHT22;30170;52.190;8.702;2022-09-09T05:52:29;23.10;68.60
44463;DHT22;30170;52.190;8.702;2022-09-09T05:54:55;23.10;68.80
44463;DHT22;30170;52.190;8.702;2022-09-09T05:57:23;23.10;68.70
44463;DHT22;30170;52.190;8.702;2022-09-09T05:59:50;23.10;68.80
44463;DHT22;30170;52.190;8.702;2022-09-09T06:02:16;23.10;68.80
44463;DHT22;30170;52.190;8.702;2022-09-09T06:04:43;23.00;68.80
44463;DHT22;30170;52.190;8.702;2022-09-09T06:07:10;23.00;68.80
44463;DHT22;30170;52.190;8.702;2022-09-09T06:09:37;23.00;68.80
44463;DHT22;30170;52.190;8.702;2022-09-09T06:12:04;23.00;69.10
44463;DHT22;30170;52.190;8.702;2022-09-09T06:14:31;23.00;69.00
44463;DHT22;30170;52.190;8.702;2022-09-09T06:16:57;23.00;69.10
44463;DHT22;30170;52.190;8.702;2022-09-09T06:19:24;23.00;69.70
44463;DHT22;30170;52.190;8.702;2022-09-09T06:21:52;23.00;69.20
44463;DHT22;30170;52.190;8.702;2022-09-09T06:24:19;22.90;69.20
44463;DHT22;30170;52.190;8.702;2022-09-09T06:26:46;22.90;69.40
44463;DHT22;30170;52.190;8.702;2022-09-09T06:29:13;22.90;69.40
44463;DHT22;30170;52.190;8.702;2022-09-09T06:31:40;22.90;69.50
44463;DHT22;30170;52.190;8.702;2022-09-09T06:34:08;22.90;69.60
44463;DHT22;30170;52.190;8.702;2022-09-09T06:36:37;22.90;69.50
44463;DHT22;30170;52.190;8.702;2022-09-09T06:39:05;22.90;69.70
44463;DHT22;30170;52.190;8.702;2022-09-09T06:41:39;22.90;69.90
44463;DHT22;30170;52.190;8.702;2022-09-09T06:44:06;22.90;69.70
44463;DHT22;30170;52.190;8.702;2022-09-09T06:46:33;23.00;69.70
44463;DHT22;30170;52.190;8.702;2022-09-09T06:49:00;23.00;69.50
44463;DHT22;30170;52.190;8.702;2022-09-09T06:51:30;23.10;69.40
44463;DHT22;30170;52.190;8.702;2022-09-09T06:53:58;23.10;69.20
44463;DHT22;30170;52.190;8.702;2022-09-09T06:56:34;23.20;69.20
44463;DHT22;30170;52.190;8.702;2022-09-09T06:59:03;23.20;69.10
44463;DHT22;30170;52.190;8.702;2022-09-09T07:01:32;23.30;69.10
44463;DHT22;30170;52.190;8.702;2022-09-09T07:04:00;23.30;69.00
44463;DHT22;30170;52.190;8.702;2022-09-09T07:06:30;23.30;69.00
44463;DHT22;30170;52.190;8.702;2022-09-09T07:08:59;23.30;68.90
44463;DHT22;30170;52.190;8.702;2022-09-09T07:11:28;23.30;68.90
44463;DHT22;30170;52.190;8.702;2022-09-09T07:13:57;23.40;68.90
44463;DHT22;30170;52.190;8.702;2022-09-09T07:16:25;23.40;68.90
44463;DHT22;30170;52.190;8.702;2022-09-09T07:18:52;23.40;68.90
44463;DHT22;30170;52.190;8.702;2022-09-09T07:21:19;23.40;68.80
44463;DHT22;30170;52.190;8.702;2022-09-09T07:23:47;23.40;68.80
44463;DHT22;30170;52.190;8.702;2022-09-09T07:26:16;23.40;68.80
44463;DHT22;30170;52.190;8.702;2022-09-09T07:28:46;23.40;68.80
44463;DHT22;30170;52.190;8.702;2022-09-09T07:31:15;23.50;68.90
44463;DHT22;30170;52.190;8.702;2022-09-09T07:33:44;23.40;68.90
44463;DHT22;30170;52.190;8.702;2022-09-09T07:38:42;23.40;68.90
44463;DHT22;30170;52.190;8.702;2022-09-09T07:41:12;23.40;68.90
44463;DHT22;30170;52.190;8.702;2022-09-09T07:43:40;23.40;68.90
44463;DHT22;30170;52.190;8.702;2022-09-09T07:46:07;23.40;68.90
44463;DHT22;30170;52.190;8.702;2022-09-09T07:48:34;23.40;68.90
44463;DHT22;30170;52.190;8.702;2022-09-09T07:51:06;23.40;69.00
44463;DHT22;30170;52.190;8.702;2022-09-09T07:53:33;23.50;69.00
44463;DHT22;30170;52.190;8.702;2022-09-09T07:56:06;23.40;69.00
44463;DHT22;30170;52.190;8.702;2022-09-09T07:58:33;23.50;69.10
44463;DHT22;30170;52.190;8.702;2022-09-09T08:01:15;23.50;69.10
44463;DHT22;30170;52.190;8.702;2022-09-09T08:03:46;23.50;69.00
44463;DHT22;30170;52.190;8.702;2022-09-09T08:06:13;23.50;69.00
44463;DHT22;30170;52.190;8.702;2022-09-09T08:08:40;23.50;69.00
44463;DHT22;30170;52.190;8.702;2022-09-09T08:11:12;23.50;69.00
44463;DHT22;30170;52.190;8.702;2022-09-09T08:13:39;23.50;69.00
44463;DHT22;30170;52.190;8.702;2022-09-09T08:16:13;23.50;69.10
44463;DHT22;30170;52.190;8.702;2022-09-09T08:18:41;23.50;69.10
44463;DHT22;30170;52.190;8.702;2022-09-09T08:21:11;23.50;69.10
44463;DHT22;30170;52.190;8.702;2022-09-09T08:23:42;23.50;69.10
44463;DHT22;30170;52.190;8.702;2022-09-09T08:26:12;23.50;69.10
44463;DHT22;30170;52.190;8.702;2022-09-09T08:28:40;23.50;69.10
44463;DHT22;30170;52.190;8.702;2022-09-09T08:31:15;23.50;69.10
44463;DHT22;30170;52.190;8.702;2022-09-09T08:33:43;23.50;69.20
44463;DHT22;30170;52.190;8.702;2022-09-09T08:36:15;23.60;69.20
44463;DHT22;30170;52.190;8.702;2022-09-09T08:38:43;23.50;69.20
44463;DHT22;30170;52.190;8.702;2022-09-09T08:44:12;23.60;69.40
44463;DHT22;30170;52.190;8.702;2022-09-09T08:52:02;23.60;69.40
44463;DHT22;30170;52.190;8.702;2022-09-09T08:54:34;23.60;69.40
44463;DHT22;30170;52.190;8.702;2022-09-09T08:57:24;23.60;69.40
44463;DHT22;30170;52.190;8.702;2022-09-09T08:59:55;23.60;69.40
44463;DHT22;30170;52.190;8.702;2022-09-09T09:02:32;23.60;69.40
44463;DHT22;30170;52.190;8.702;2022-09-09T09:05:23;23.60;69.40
44463;DHT22;30170;52.190;8.702;2022-09-09T09:10:49;23.60;69.50
44463;DHT22;30170;52.190;8.702;2022-09-09T09:13:20;23.60;69.40
44463;DHT22;30170;52.190;8.702;2022-09-09T09:15:55;23.60;69.50
44463;DHT22;30170;52.190;8.702;2022-09-09T09:18:24;23.60;69.50
44463;DHT22;30170;52.190;8.702;2022-09-09T09:21:02;23.60;69.50
44463;DHT22;30170;52.190;8.702;2022-09-09T09:23:41;23.60;69.50
44463;DHT22;30170;52.190;8.702;2022-09-09T09:26:10;23.70;69.60
44463;DHT22;30170;52.190;8.702;2022-09-09T09:28:40;23.60;69.50
44463;DHT22;30170;52.190;8.702;2022-09-09T09:31:09;23.70;69.60
44463;DHT22;30170;52.190;8.702;2022-09-09T09:33:54;23.60;69.60
44463;DHT22;30170;52.190;8.702;2022-09-09T09:36:24;23.60;69.60
44463;DHT22;30170;52.190;8.702;2022-09-09T09:39:00;23.70;69.70
44463;DHT22;30170;52.190;8.702;2022-09-09T09:41:47;23.70;69.70
44463;DHT22;30170;52.190;8.702;2022-09-09T09:44:26;23.70;69.80
44463;DHT22;30170;52.190;8.702;2022-09-09T09:47:07;23.70;69.80
44463;DHT22;30170;52.190;8.702;2022-09-09T09:49:34;23.70;69.80
44463;DHT22;30170;52.190;8.702;2022-09-09T09:52:03;23.70;70.10
44463;DHT22;30170;52.190;8.702;2022-09-09T09:54:38;23.70;69.80
44463;DHT22;30170;52.190;8.702;2022-09-09T09:57:13;23.70;69.80
44463;DHT22;30170;52.190;8.702;2022-09-09T09:59:41;23.70;69.90
44463;DHT22;30170;52.190;8.702;2022-09-09T10:02:23;23.70;69.90
44463;DHT22;30170;52.190;8.702;2022-09-09T10:05:23;23.80;69.90
44463;DHT22;30170;52.190;8.702;2022-09-09T10:08:13;23.80;70.20
44463;DHT22;30170;52.190;8.702;2022-09-09T10:13:50;23.80;69.60
44463;DHT22;30170;52.190;8.702;2022-09-09T10:32:49;23.80;70.30
44463;DHT22;30170;52.190;8.702;2022-09-09T10:35:27;23.70;70.30
44463;DHT22;30170;52.190;8.702;2022-09-09T10:43:24;23.70;70.30
44463;DHT22;30170;52.190;8.702;2022-09-09T11:00:10;23.80;70.60
44463;DHT22;30170;52.190;8.702;2022-09-09T11:02:41;23.80;70.60
44463;DHT22;30170;52.190;8.702;2022-09-09T11:05:18;23.80;70.80
44463;DHT22;30170;52.190;8.702;2022-09-09T11:08:00;23.80;70.50
44463;DHT22;30170;52.190;8.702;2022-09-09T11:10:51;23.80;70.30
44463;DHT22;30170;52.190;8.702;2022-09-09T11:14:05;23.80;70.10
44463;DHT22;30170;52.190;8.702;2022-09-09T11:19:19;23.90;69.80
44463;DHT22;30170;52.190;8.702;2022-09-09T11:21:50;23.90;69.80
44463;DHT22;30170;52.190;8.702;2022-09-09T11:27:15;24.00;69.70
44463;DHT22;30170;52.190;8.702;2022-09-09T11:38:55;24.10;69.30
44463;DHT22;30170;52.190;8.702;2022-09-09T11:41:36;24.10;69.20
44463;DHT22;30170;52.190;8.702;2022-09-09T11:44:12;24.20;69.30
44463;DHT22;30170;52.190;8.702;2022-09-09T11:46:40;24.20;69.40
44463;DHT22;30170;52.190;8.702;2022-09-09T11:52:20;24.20;69.50
44463;DHT22;30170;52.190;8.702;2022-09-09T11:54:49;24.20;69.50
44463;DHT22;30170;52.190;8.702;2022-09-09T11:57:31;24.20;69.50
44463;DHT22;30170;52.190;8.702;2022-09-09T11:59:58;24.30;69.60
44463;DHT22;30170;52.190;8.702;2022-09-09T12:02:28;24.30;69.60
44463;DHT22;30170;52.190;8.702;2022-09-09T12:05:02;24.30;69.70
44463;DHT22;30170;52.190;8.702;2022-09-09T12:07:41;24.30;69.70
44463;DHT22;30170;52.190;8.702;2022-09-09T12:10:39;24.30;69.60
44463;DHT22;30170;52.190;8.702;2022-09-09T12:13:21;24.40;69.70
44463;DHT22;30170;52.190;8.702;2022-09-09T12:15:54;24.40;69.70
44463;DHT22;30170;52.190;8.702;2022-09-09T12:18:39;24.50;69.70
44463;DHT22;30170;52.190;8.702;2022-09-09T12:23:50;24.50;69.80
44463;DHT22;30170;52.190;8.702;2022-09-09T12:31:34;24.50;70.00
44463;DHT22;30170;52.190;8.702;2022-09-09T12:36:41;24.50;70.00
44463;DHT22;30170;52.190;8.702;2022-09-09T12:39:22;24.60;70.50
44463;DHT22;30170;52.190;8.702;2022-09-09T12:41:53;24.70;70.00
44463;DHT22;30170;52.190;8.702;2022-09-09T12:44:26;24.70;70.00
44463;DHT22;30170;52.190;8.702;2022-09-09T12:47:00;24.80;70.00
44463;DHT22;30170;52.190;8.702;2022-09-09T12:49:37;24.80;69.90
44463;DHT22;30170;52.190;8.702;2022-09-09T12:52:19;24.90;69.90
44463;DHT22;30170;52.190;8.702;2022-09-09T12:54:49;24.90;69.80
44463;DHT22;30170;52.190;8.702;2022-09-09T12:57:22;25.00;69.80
44463;DHT22;30170;52.190;8.702;2022-09-09T12:59:51;24.90;69.80
44463;DHT22;30170;52.190;8.702;2022-09-09T13:02:26;24.90;70.00
44463;DHT22;30170;52.190;8.702;2022-09-09T13:04:53;24.90;70.00
44463;DHT22;30170;52.190;8.702;2022-09-09T13:07:21;24.90;70.20
44463;DHT22;30170;52.190;8.702;2022-09-09T13:09:48;24.90;70.30
44463;DHT22;30170;52.190;8.702;2022-09-09T13:12:20;24.90;70.30
44463;DHT22;30170;52.190;8.702;2022-09-09T13:14:52;24.90;70.40
44463;DHT22;30170;52.190;8.702;2022-09-09T13:17:24;24.90;70.40
44463;DHT22;30170;52.190;8.702;2022-09-09T13:19:52;24.90;70.40
44463;DHT22;30170;52.190;8.702;2022-09-09T13:22:33;24.90;70.40
44463;DHT22;30170;52.190;8.702;2022-09-09T13:27:40;24.80;70.40
44463;DHT22;30170;52.190;8.702;2022-09-09T13:30:40;24.80;70.50
44463;DHT22;30170;52.190;8.702;2022-09-09T13:35:55;24.70;70.70
44463;DHT22;30170;52.190;8.702;2022-09-09T13:38:23;24.70;70.90
44463;DHT22;30170;52.190;8.702;2022-09-09T13:41:02;24.80;70.90
44463;DHT22;30170;52.190;8.702;2022-09-09T13:43:42;24.80;70.80
44463;DHT22;30170;52.190;8.702;2022-09-09T13:46:34;24.90;70.30
44463;DHT22;30170;52.190;8.702;2022-09-09T13:49:22;25.00;70.20
44463;DHT22;30170;52.190;8.702;2022-09-09T13:52:10;24.90;70.20
44463;DHT22;30170;52.190;8.702;2022-09-09T13:54:38;24.90;70.20
44463;DHT22;30170;52.190;8.702;2022-09-09T13:57:21;25.00;70.30
44463;DHT22;30170;52.190;8.702;2022-09-09T13:59:48;25.50;70.10
44463;DHT22;30170;52.190;8.702;2022-09-09T14:02:32;26.00;68.10
44463;DHT22;30170;52.190;8.702;2022-09-09T14:05:00;26.40;67.60
44463;DHT22;30170;52.190;8.702;2022-09-09T14:07:27;26.80;66.40
44463;DHT22;30170;52.190;8.702;2022-09-09T14:09:54;26.90;66.00
44463;DHT22;30170;52.190;8.702;2022-09-09T14:12:20;26.80;66.00
44463;DHT22;30170;52.190;8.702;2022-09-09T14:14:47;26.60;66.20
44463;DHT22;30170;52.190;8.702;2022-09-09T14:17:14;26.60;66.50
44463;DHT22;30170;52.190;8.702;2022-09-09T14:19:41;26.60;66.50
44463;DHT22;30170;52.190;8.702;2022-09-09T14:22:09;26.60;66.60
44463;DHT22;30170;52.190;8.702;2022-09-09T14:24:36;26.70;66.40
44463;DHT22;30170;52.190;8.702;2022-09-09T14:27:02;26.80;66.40
44463;DHT22;30170;52.190;8.702;2022-09-09T14:29:29;27.10;65.70
44463;DHT22;30170;52.190;8.702;2022-09-09T14:31:56;27.30;65.50
44463;DHT22;30170;52.190;8.702;2022-09-09T14:34:24;27.60;65.00
44463;DHT22;30170;52.190;8.702;2022-09-09T14:36:50;27.70;64.60
44463;DHT22;30170;52.190;8.702;2022-09-09T14:39:17;27.60;64.60
44463;DHT22;30170;52.190;8.702;2022-09-09T14:41:44;27.60;64.60
44463;DHT22;30170;52.190;8.702;2022-09-09T14:44:12;27.60;64.70
44463;DHT22;30170;52.190;8.702;2022-09-09T14:46:39;27.60;64.70
44463;DHT22;30170;52.190;8.702;2022-09-09T14:49:05;27.60;64.90
44463;DHT22;30170;52.190;8.702;2022-09-09T14:51:32;27.70;64.80
44463;DHT22;30170;52.190;8.702;2022-09-09T14:53:59;27.60;64.80
44463;DHT22;30170;52.190;8.702;2022-09-09T14:56:28;27.40;65.00
44463;DHT22;30170;52.190;8.702;2022-09-09T14:58:57;27.20;65.50
44463;DHT22;30170;52.190;8.702;2022-09-09T15:01:25;26.90;66.00
44463;DHT22;30170;52.190;8.702;2022-09-09T15:03:59;26.60;67.00
44463;DHT22;30170;52.190;8.702;2022-09-09T15:06:27;26.40;67.20
44463;DHT22;30170;52.190;8.702;2022-09-09T15:08:56;26.10;67.60
44463;DHT22;30170;52.190;8.702;2022-09-09T15:11:27;26.00;68.10
44463;DHT22;30170;52.190;8.702;2022-09-09T15:13:54;25.80;68.90
44463;DHT22;30170;52.190;8.702;2022-09-09T15:16:24;25.70;68.80
44463;DHT22;30170;52.190;8.702;2022-09-09T15:18:53;25.60;69.10
44463;DHT22;30170;52.190;8.702;2022-09-09T15:21:22;25.50;69.30
44463;DHT22;30170;52.190;8.702;2022-09-09T15:23:49;25.40;69.50
44463;DHT22;30170;52.190;8.702;2022-09-09T15:26:18;25.30;69.60
44463;DHT22;30170;52.190;8.702;2022-09-09T15:28:45;25.30;69.90
44463;DHT22;30170;52.190;8.702;2022-09-09T15:31:15;25.30;69.90
44463;DHT22;30170;52.190;8.702;2022-09-09T15:33:52;25.20;70.00
44463;DHT22;30170;52.190;8.702;2022-09-09T15:36:24;25.20;70.20
44463;DHT22;30170;52.190;8.702;2022-09-09T15:38:51;25.10;70.20
44463;DHT22;30170;52.190;8.702;2022-09-09T15:41:21;25.10;70.30
44463;DHT22;30170;52.190;8.702;2022-09-09T15:43:53;25.10;70.30
44463;DHT22;30170;52.190;8.702;2022-09-09T15:48:56;25.10;70.40
44463;DHT22;30170;52.190;8.702;2022-09-09T15:51:24;25.10;70.40
44463;DHT22;30170;52.190;8.702;2022-09-09T15:54:21;25.10;70.40
44463;DHT22;30170;52.190;8.702;2022-09-09T15:56:52;25.10;70.30
44463;DHT22;30170;52.190;8.702;2022-09-09T15:59:19;25.10;70.30
44463;DHT22;30170;52.190;8.702;2022-09-09T16:01:46;25.10;70.30
44463;DHT22;30170;52.190;8.702;2022-09-09T16:04:13;25.10;70.30
44463;DHT22;30170;52.190;8.702;2022-09-09T16:06:39;25.10;70.40
44463;DHT22;30170;52.190;8.702;2022-09-09T16:09:07;25.10;70.40
44463;DHT22;30170;52.190;8.702;2022-09-09T16:11:36;25.00;70.40
44463;DHT22;30170;52.190;8.702;2022-09-09T16:14:04;25.00;71.00
44463;DHT22;30170;52.190;8.702;2022-09-09T16:16:33;25.00;70.50
44463;DHT22;30170;52.190;8.702;2022-09-09T16:19:06;25.00;70.60
44463;DHT22;30170;52.190;8.702;2022-09-09T16:21:45;25.00;70.60
44463;DHT22;30170;52.190;8.702;2022-09-09T16:24:14;25.00;70.60
44463;DHT22;30170;52.190;8.702;2022-09-09T16:26:43;25.00;70.70
44463;DHT22;30170;52.190;8.702;2022-09-09T16:29:13;25.00;70.60
44463;DHT22;30170;52.190;8.702;2022-09-09T16:31:41;25.00;70.70
44463;DHT22;30170;52.190;8.702;2022-09-09T16:34:09;25.00;70.70
44463;DHT22;30170;52.190;8.702;2022-09-09T16:36:37;25.00;70.70
44463;DHT22;30170;52.190;8.702;2022-09-09T16:39:14;25.00;70.70
44463;DHT22;30170;52.190;8.702;2022-09-09T16:41:42;24.90;70.70
44463;DHT22;30170;52.190;8.702;2022-09-09T16:44:11;24.90;70.70
44463;DHT22;30170;52.190;8.702;2022-09-09T16:46:40;24.90;70.80
44463;DHT22;30170;52.190;8.702;2022-09-09T16:49:10;24.90;70.80
44463;DHT22;30170;52.190;8.702;2022-09-09T16:51:39;24.90;70.90
44463;DHT22;30170;52.190;8.702;2022-09-09T16:54:07;24.90;70.90
44463;DHT22;30170;52.190;8.702;2022-09-09T16:56:36;24.90;71.00
44463;DHT22;30170;52.190;8.702;2022-09-09T16:59:09;24.80;71.00
44463;DHT22;30170;52.190;8.702;2022-09-09T17:01:39;24.80;71.00
44463;DHT22;30170;52.190;8.702;2022-09-09T17:04:13;24.80;71.10
44463;DHT22;30170;52.190;8.702;2022-09-09T17:06:42;24.80;71.20
44463;DHT22;30170;52.190;8.702;2022-09-09T17:09:11;24.70;71.30
44463;DHT22;30170;52.190;8.702;2022-09-09T17:11:39;24.70;71.30
44463;DHT22;30170;52.190;8.702;2022-09-09T17:14:08;24.70;71.30
44463;DHT22;30170;52.190;8.702;2022-09-09T17:16:36;24.70;71.30
44463;DHT22;30170;52.190;8.702;2022-09-09T17:19:03;24.70;71.30
44463;DHT22;30170;52.190;8.702;2022-09-09T17:21:32;24.70;71.40
44463;DHT22;30170;52.190;8.702;2022-09-09T17:23:59;24.70;71.40
44463;DHT22;30170;52.190;8.702;2022-09-09T17:26:28;24.70;71.40
44463;DHT22;30170;52.190;8.702;2022-09-09T17:28:57;24.70;71.50
44463;DHT22;30170;52.190;8.702;2022-09-09T17:31:28;24.70;71.60
44463;DHT22;30170;52.190;8.702;2022-09-09T17:33:56;24.60;71.60
44463;DHT22;30170;52.190;8.702;2022-09-09T17:36:28;24.60;71.60
44463;DHT22;30170;52.190;8.702;2022-09-09T17:38:56;24.60;71.60
44463;DHT22;30170;52.190;8.702;2022-09-09T17:41:31;24.50;71.50
44463;DHT22;30170;52.190;8.702;2022-09-09T17:43:58;24.50;71.50
44463;DHT22;30170;52.190;8.702;2022-09-09T17:46:30;24.50;71.50
44463;DHT22;30170;52.190;8.702;2022-09-09T17:49:00;24.50;71.60
44463;DHT22;30170;52.190;8.702;2022-09-09T17:51:29;24.50;71.70
44463;DHT22;30170;52.190;8.702;2022-09-09T17:54:02;24.50;71.70
44463;DHT22;30170;52.190;8.702;2022-09-09T17:56:31;24.50;71.70
44463;DHT22;30170;52.190;8.702;2022-09-09T17:59:00;24.50;71.70